TNCB/BON METAR and TAF weather

Enter ICAO airport designator
Station Type Date Time Source
TNCB METAR 2018/12/15 01:55 UTC NOAA

TNCB 150155Z AUTO 09014KT 9999 NSC 26/22 Q1016


Station Type Date Time Source
TNCB Decoded METAR 2018/12/15 01:55 UTC NOAA

Flamingo Airport, Bonaire, Netherlands Antilles (TNCB) 12-09N 068-17W 7M
Dec 14, 2018 - 08:55 PM EST / 2018.12.15 0155 UTC
Wind: from the E (090 degrees) at 16 MPH (14 KT):0
Visibility: greater than 7 mile(s):0
Temperature: 78 F (26 C)
Dew Point: 71 F (22 C)
Relative Humidity: 78%
Pressure (altimeter): 30.00 in. Hg (1016 hPa)
ob: TNCB 150155Z AUTO 09014KT 9999 NSC 26/22 Q1016
cycle: 2

Station Type Date Time Source
TNCB TAF 2018/12/14 18:27 UTC NOAA

TAF TAF TNCB 141702Z 1418/1524 09017KT 9999 SCT020 PROB30
TEMPO 1506/1512 6000 SHRA SCT018CB


Example: see airport list